sensor_id;sensor_type;location;lat;lon;timestamp;temperature;humidity
9723;DHT22;4900;49.306;8.500;2023-03-23T00:02:28;15.19;56.53
9723;DHT22;4900;49.306;8.500;2023-03-23T00:04:54;15.20;56.43
9723;DHT22;4900;49.306;8.500;2023-03-23T00:07:21;15.20;56.45
9723;DHT22;4900;49.306;8.500;2023-03-23T00:09:48;15.25;56.42
9723;DHT22;4900;49.306;8.500;2023-03-23T00:12:30;15.25;56.24
9723;DHT22;4900;49.306;8.500;2023-03-23T00:17:28;15.19;56.48
9723;DHT22;4900;49.306;8.500;2023-03-23T00:19:54;15.26;56.26
9723;DHT22;4900;49.306;8.500;2023-03-23T00:22:20;15.23;56.35
9723;DHT22;4900;49.306;8.500;2023-03-23T00:24:47;15.18;56.52
9723;DHT22;4900;49.306;8.500;2023-03-23T00:27:15;15.22;56.47
9723;DHT22;4900;49.306;8.500;2023-03-23T00:29:41;15.20;56.54
9723;DHT22;4900;49.306;8.500;2023-03-23T00:32:08;15.18;56.73
9723;DHT22;4900;49.306;8.500;2023-03-23T00:34:38;15.16;56.78
9723;DHT22;4900;49.306;8.500;2023-03-23T00:37:05;15.19;56.63
9723;DHT22;4900;49.306;8.500;2023-03-23T00:39:31;15.08;56.90
9723;DHT22;4900;49.306;8.500;2023-03-23T00:41:56;15.11;56.93
9723;DHT22;4900;49.306;8.500;2023-03-23T00:44:26;15.08;56.98
9723;DHT22;4900;49.306;8.500;2023-03-23T00:46:54;15.04;57.02
9723;DHT22;4900;49.306;8.500;2023-03-23T00:49:21;15.02;57.10
9723;DHT22;4900;49.306;8.500;2023-03-23T00:51:54;15.04;57.01
9723;DHT22;4900;49.306;8.500;2023-03-23T00:54:21;15.01;57.02
9723;DHT22;4900;49.306;8.500;2023-03-23T00:56:47;14.98;57.12
9723;DHT22;4900;49.306;8.500;2023-03-23T00:59:12;15.01;57.02
9723;DHT22;4900;49.306;8.500;2023-03-23T01:01:38;15.01;56.96
9723;DHT22;4900;49.306;8.500;2023-03-23T01:04:05;14.97;56.99
9723;DHT22;4900;49.306;8.500;2023-03-23T01:06:32;14.97;57.03
9723;DHT22;4900;49.306;8.500;2023-03-23T01:09:01;14.95;57.01
9723;DHT22;4900;49.306;8.500;2023-03-23T01:11:28;14.97;57.04
9723;DHT22;4900;49.306;8.500;2023-03-23T01:13:53;14.88;57.09
9723;DHT22;4900;49.306;8.500;2023-03-23T01:16:19;14.85;57.18
9723;DHT22;4900;49.306;8.500;2023-03-23T01:18:44;14.80;57.35
9723;DHT22;4900;49.306;8.500;2023-03-23T01:21:13;14.81;57.41
9723;DHT22;4900;49.306;8.500;2023-03-23T01:23:39;14.80;57.42
9723;DHT22;4900;49.306;8.500;2023-03-23T01:26:14;14.74;57.56
9723;DHT22;4900;49.306;8.500;2023-03-23T01:28:41;14.74;57.68
9723;DHT22;4900;49.306;8.500;2023-03-23T01:31:17;14.69;57.76
9723;DHT22;4900;49.306;8.500;2023-03-23T01:33:44;14.69;57.80
9723;DHT22;4900;49.306;8.500;2023-03-23T01:36:13;14.70;57.76
9723;DHT22;4900;49.306;8.500;2023-03-23T01:38:38;14.74;57.75
9723;DHT22;4900;49.306;8.500;2023-03-23T01:41:04;14.71;57.80
9723;DHT22;4900;49.306;8.500;2023-03-23T01:43:30;14.69;57.80
9723;DHT22;4900;49.306;8.500;2023-03-23T01:45:56;14.70;57.85
9723;DHT22;4900;49.306;8.500;2023-03-23T01:48:32;14.69;57.83
9723;DHT22;4900;49.306;8.500;2023-03-23T01:51:10;14.69;57.79
9723;DHT22;4900;49.306;8.500;2023-03-23T01:53:40;14.66;57.90
9723;DHT22;4900;49.306;8.500;2023-03-23T01:56:08;14.70;57.94
9723;DHT22;4900;49.306;8.500;2023-03-23T01:58:37;14.69;57.88
9723;DHT22;4900;49.306;8.500;2023-03-23T02:01:06;14.71;57.80
9723;DHT22;4900;49.306;8.500;2023-03-23T02:03:35;14.71;57.83
9723;DHT22;4900;49.306;8.500;2023-03-23T02:06:02;14.73;57.78
9723;DHT22;4900;49.306;8.500;2023-03-23T02:08:28;14.71;57.71
9723;DHT22;4900;49.306;8.500;2023-03-23T02:10:55;14.73;57.69
9723;DHT22;4900;49.306;8.500;2023-03-23T02:13:21;14.69;57.85
9723;DHT22;4900;49.306;8.500;2023-03-23T02:16:02;14.66;57.80
9723;DHT22;4900;49.306;8.500;2023-03-23T02:35:35;14.43;58.94
9723;DHT22;4900;49.306;8.500;2023-03-23T02:38:09;14.40;59.22
9723;DHT22;4900;49.306;8.500;2023-03-23T02:40:39;14.42;59.10
9723;DHT22;4900;49.306;8.500;2023-03-23T02:43:12;14.42;59.48
9723;DHT22;4900;49.306;8.500;2023-03-23T02:45:39;14.40;59.89
9723;DHT22;4900;49.306;8.500;2023-03-23T02:48:07;14.36;60.18
9723;DHT22;4900;49.306;8.500;2023-03-23T02:50:34;14.36;60.56
9723;DHT22;4900;49.306;8.500;2023-03-23T02:53:02;14.36;60.35
9723;DHT22;4900;49.306;8.500;2023-03-23T02:55:29;14.34;60.39
9723;DHT22;4900;49.306;8.500;2023-03-23T02:57:56;14.30;60.45
9723;DHT22;4900;49.306;8.500;2023-03-23T03:00:22;14.33;60.47
9723;DHT22;4900;49.306;8.500;2023-03-23T03:02:50;14.28;60.48
9723;DHT22;4900;49.306;8.500;2023-03-23T03:10:39;14.25;60.28
9723;DHT22;4900;49.306;8.500;2023-03-23T03:15:51;14.23;60.18
9723;DHT22;4900;49.306;8.500;2023-03-23T03:18:25;14.26;60.14
9723;DHT22;4900;49.306;8.500;2023-03-23T03:20:59;14.23;60.06
9723;DHT22;4900;49.306;8.500;2023-03-23T03:23:27;14.25;60.01
9723;DHT22;4900;49.306;8.500;2023-03-23T03:25:54;14.28;59.97
9723;DHT22;4900;49.306;8.500;2023-03-23T03:28:23;14.26;60.08
9723;DHT22;4900;49.306;8.500;2023-03-23T03:30:55;14.28;60.19
9723;DHT22;4900;49.306;8.500;2023-03-23T03:33:23;14.30;60.13
9723;DHT22;4900;49.306;8.500;2023-03-23T03:35:57;14.30;60.13
9723;DHT22;4900;49.306;8.500;2023-03-23T03:38:23;14.32;60.10
9723;DHT22;4900;49.306;8.500;2023-03-23T03:40:49;14.33;60.07
9723;DHT22;4900;49.306;8.500;2023-03-23T03:43:15;14.37;60.10
9723;DHT22;4900;49.306;8.500;2023-03-23T03:45:40;14.37;60.24
9723;DHT22;4900;49.306;8.500;2023-03-23T03:48:07;14.37;60.17
9723;DHT22;4900;49.306;8.500;2023-03-23T03:50:32;14.36;60.35
9723;DHT22;4900;49.306;8.500;2023-03-23T03:52:58;14.36;60.49
9723;DHT22;4900;49.306;8.500;2023-03-23T03:55:23;14.37;60.71
9723;DHT22;4900;49.306;8.500;2023-03-23T03:57:49;14.42;60.66
9723;DHT22;4900;49.306;8.500;2023-03-23T04:00:16;14.37;60.65
9723;DHT22;4900;49.306;8.500;2023-03-23T04:02:47;14.42;60.63
9723;DHT22;4900;49.306;8.500;2023-03-23T04:05:16;14.49;60.49
9723;DHT22;4900;49.306;8.500;2023-03-23T04:07:41;14.52;60.45
9723;DHT22;4900;49.306;8.500;2023-03-23T04:10:08;14.53;60.40
9723;DHT22;4900;49.306;8.500;2023-03-23T04:12:37;14.53;60.36
9723;DHT22;4900;49.306;8.500;2023-03-23T04:15:03;14.55;60.43
9723;DHT22;4900;49.306;8.500;2023-03-23T04:17:29;14.57;60.36
9723;DHT22;4900;49.306;8.500;2023-03-23T04:19:55;14.61;60.22
9723;DHT22;4900;49.306;8.500;2023-03-23T04:22:24;14.66;60.11
9723;DHT22;4900;49.306;8.500;2023-03-23T04:24:57;14.69;60.11
9723;DHT22;4900;49.306;8.500;2023-03-23T04:27:25;14.66;60.20
9723;DHT22;4900;49.306;8.500;2023-03-23T04:29:50;14.67;60.11
9723;DHT22;4900;49.306;8.500;2023-03-23T04:32:15;14.66;60.21
9723;DHT22;4900;49.306;8.500;2023-03-23T04:34:43;14.70;60.19
9723;DHT22;4900;49.306;8.500;2023-03-23T04:37:09;14.70;60.19
9723;DHT22;4900;49.306;8.500;2023-03-23T04:39:35;14.77;60.10
9723;DHT22;4900;49.306;8.500;2023-03-23T04:42:00;14.69;60.29
9723;DHT22;4900;49.306;8.500;2023-03-23T04:44:26;14.73;60.19
9723;DHT22;4900;49.306;8.500;2023-03-23T04:46:53;14.76;60.24
9723;DHT22;4900;49.306;8.500;2023-03-23T04:49:19;14.71;60.56
9723;DHT22;4900;49.306;8.500;2023-03-23T04:51:47;14.69;61.03
9723;DHT22;4900;49.306;8.500;2023-03-23T04:54:13;14.61;61.43
9723;DHT22;4900;49.306;8.500;2023-03-23T04:56:39;14.63;61.63
9723;DHT22;4900;49.306;8.500;2023-03-23T04:59:06;14.67;61.89
9723;DHT22;4900;49.306;8.500;2023-03-23T05:01:33;14.59;62.58
9723;DHT22;4900;49.306;8.500;2023-03-23T05:04:01;14.59;62.82
9723;DHT22;4900;49.306;8.500;2023-03-23T05:06:27;14.50;63.31
9723;DHT22;4900;49.306;8.500;2023-03-23T05:08:52;14.50;63.36
9723;DHT22;4900;49.306;8.500;2023-03-23T05:11:18;14.46;63.44
9723;DHT22;4900;49.306;8.500;2023-03-23T05:13:43;14.40;63.76
9723;DHT22;4900;49.306;8.500;2023-03-23T05:16:09;14.46;63.70
9723;DHT22;4900;49.306;8.500;2023-03-23T05:18:35;14.43;63.83
9723;DHT22;4900;49.306;8.500;2023-03-23T05:21:02;14.42;63.78
9723;DHT22;4900;49.306;8.500;2023-03-23T05:23:28;14.39;64.32
9723;DHT22;4900;49.306;8.500;2023-03-23T05:25:57;14.36;64.15
9723;DHT22;4900;49.306;8.500;2023-03-23T05:28:26;14.30;64.25
9723;DHT22;4900;49.306;8.500;2023-03-23T05:30:52;14.32;64.34
9723;DHT22;4900;49.306;8.500;2023-03-23T05:33:19;14.30;64.25
9723;DHT22;4900;49.306;8.500;2023-03-23T05:35:47;14.26;64.32
9723;DHT22;4900;49.306;8.500;2023-03-23T05:38:13;14.29;64.22
9723;DHT22;4900;49.306;8.500;2023-03-23T05:40:41;14.30;63.75
9723;DHT22;4900;49.306;8.500;2023-03-23T05:43:09;14.28;63.72
9723;DHT22;4900;49.306;8.500;2023-03-23T05:45:35;14.29;63.66
9723;DHT22;4900;49.306;8.500;2023-03-23T05:48:01;14.32;63.47
9723;DHT22;4900;49.306;8.500;2023-03-23T05:50:27;14.39;63.18
9723;DHT22;4900;49.306;8.500;2023-03-23T05:52:54;14.40;63.05
9723;DHT22;4900;49.306;8.500;2023-03-23T05:55:19;14.36;62.91
9723;DHT22;4900;49.306;8.500;2023-03-23T05:57:46;14.44;62.71
9723;DHT22;4900;49.306;8.500;2023-03-23T06:00:12;14.42;62.86
9723;DHT22;4900;49.306;8.500;2023-03-23T06:02:44;14.50;62.50
9723;DHT22;4900;49.306;8.500;2023-03-23T06:05:11;14.55;62.49
9723;DHT22;4900;49.306;8.500;2023-03-23T06:07:36;14.53;62.44
9723;DHT22;4900;49.306;8.500;2023-03-23T06:10:06;14.56;62.43
9723;DHT22;4900;49.306;8.500;2023-03-23T06:12:32;14.64;62.25
9723;DHT22;4900;49.306;8.500;2023-03-23T06:14:58;14.60;62.34
9723;DHT22;4900;49.306;8.500;2023-03-23T06:17:24;14.69;62.17
9723;DHT22;4900;49.306;8.500;2023-03-23T06:19:50;14.78;62.07
9723;DHT22;4900;49.306;8.500;2023-03-23T06:22:17;14.81;61.92
9723;DHT22;4900;49.306;8.500;2023-03-23T06:24:43;14.85;61.76
9723;DHT22;4900;49.306;8.500;2023-03-23T06:27:10;14.92;61.76
9723;DHT22;4900;49.306;8.500;2023-03-23T06:29:37;14.98;61.66
9723;DHT22;4900;49.306;8.500;2023-03-23T06:32:04;14.99;61.57
9723;DHT22;4900;49.306;8.500;2023-03-23T06:34:30;15.04;61.42
9723;DHT22;4900;49.306;8.500;2023-03-23T06:36:56;15.06;61.19
9723;DHT22;4900;49.306;8.500;2023-03-23T06:39:22;15.12;61.07
9723;DHT22;4900;49.306;8.500;2023-03-23T06:41:48;15.22;60.82
9723;DHT22;4900;49.306;8.500;2023-03-23T06:44:13;15.29;60.59
9723;DHT22;4900;49.306;8.500;2023-03-23T06:46:40;15.29;60.48
9723;DHT22;4900;49.306;8.500;2023-03-23T06:49:08;15.33;60.36
9723;DHT22;4900;49.306;8.500;2023-03-23T06:51:33;15.33;60.33
9723;DHT22;4900;49.306;8.500;2023-03-23T06:53:59;15.38;60.30
9723;DHT22;4900;49.306;8.500;2023-03-23T06:56:24;15.33;60.14
9723;DHT22;4900;49.306;8.500;2023-03-23T06:58:50;15.40;60.08
9723;DHT22;4900;49.306;8.500;2023-03-23T07:01:16;15.47;59.95
9723;DHT22;4900;49.306;8.500;2023-03-23T07:03:42;15.49;59.87
9723;DHT22;4900;49.306;8.500;2023-03-23T07:06:08;15.51;59.78
9723;DHT22;4900;49.306;8.500;2023-03-23T07:08:34;15.57;59.66
9723;DHT22;4900;49.306;8.500;2023-03-23T07:11:00;15.43;59.81
9723;DHT22;4900;49.306;8.500;2023-03-23T07:13:26;15.47;59.73
9723;DHT22;4900;49.306;8.500;2023-03-23T07:15:52;15.49;59.91
9723;DHT22;4900;49.306;8.500;2023-03-23T07:18:18;15.51;59.92
9723;DHT22;4900;49.306;8.500;2023-03-23T07:20:50;15.46;60.08
9723;DHT22;4900;49.306;8.500;2023-03-23T07:23:16;15.50;60.13
9723;DHT22;4900;49.306;8.500;2023-03-23T07:25:43;15.51;60.07
9723;DHT22;4900;49.306;8.500;2023-03-23T07:28:09;15.47;60.31
9723;DHT22;4900;49.306;8.500;2023-03-23T07:30:34;15.54;60.22
9723;DHT22;4900;49.306;8.500;2023-03-23T07:33:06;15.67;60.00
9723;DHT22;4900;49.306;8.500;2023-03-23T07:35:32;15.74;59.99
9723;DHT22;4900;49.306;8.500;2023-03-23T07:37:58;15.56;60.91
9723;DHT22;4900;49.306;8.500;2023-03-23T07:40:23;15.53;61.12
9723;DHT22;4900;49.306;8.500;2023-03-23T07:42:56;15.61;61.22
9723;DHT22;4900;49.306;8.500;2023-03-23T07:45:23;15.60;61.48
9723;DHT22;4900;49.306;8.500;2023-03-23T07:47:49;15.66;61.56
9723;DHT22;4900;49.306;8.500;2023-03-23T07:50:15;15.68;61.66
9723;DHT22;4900;49.306;8.500;2023-03-23T07:52:41;15.84;61.51
9723;DHT22;4900;49.306;8.500;2023-03-23T07:55:10;15.92;61.46
9723;DHT22;4900;49.306;8.500;2023-03-23T07:57:46;16.19;60.88
9723;DHT22;4900;49.306;8.500;2023-03-23T08:00:16;16.34;60.65
9723;DHT22;4900;49.306;8.500;2023-03-23T08:02:52;16.40;60.43
9723;DHT22;4900;49.306;8.500;2023-03-23T08:05:18;16.61;60.24
9723;DHT22;4900;49.306;8.500;2023-03-23T08:07:44;16.75;59.93
9723;DHT22;4900;49.306;8.500;2023-03-23T08:10:11;16.81;59.74
9723;DHT22;4900;49.306;8.500;2023-03-23T08:12:41;16.83;59.51
9723;DHT22;4900;49.306;8.500;2023-03-23T08:15:08;16.74;59.66
9723;DHT22;4900;49.306;8.500;2023-03-23T08:17:34;16.71;59.53
9723;DHT22;4900;49.306;8.500;2023-03-23T08:20:00;16.75;59.75
9723;DHT22;4900;49.306;8.500;2023-03-23T08:22:27;16.79;59.75
9723;DHT22;4900;49.306;8.500;2023-03-23T08:24:54;16.49;60.30
9723;DHT22;4900;49.306;8.500;2023-03-23T08:27:20;16.65;60.02
9723;DHT22;4900;49.306;8.500;2023-03-23T08:29:46;16.83;59.67
9723;DHT22;4900;49.306;8.500;2023-03-23T08:32:12;16.79;59.92
9723;DHT22;4900;49.306;8.500;2023-03-23T08:34:38;16.95;59.61
9723;DHT22;4900;49.306;8.500;2023-03-23T08:37:03;17.02;59.39
9723;DHT22;4900;49.306;8.500;2023-03-23T08:39:30;17.08;59.42
9723;DHT22;4900;49.306;8.500;2023-03-23T08:41:56;17.27;59.10
9723;DHT22;4900;49.306;8.500;2023-03-23T08:44:21;17.37;59.06
9723;DHT22;4900;49.306;8.500;2023-03-23T08:46:46;17.47;59.01
9723;DHT22;4900;49.306;8.500;2023-03-23T08:49:12;17.55;58.82
9723;DHT22;4900;49.306;8.500;2023-03-23T08:51:37;17.79;58.49
9723;DHT22;4900;49.306;8.500;2023-03-23T08:54:03;17.94;58.27
9723;DHT22;4900;49.306;8.500;2023-03-23T08:56:29;17.95;58.03
9723;DHT22;4900;49.306;8.500;2023-03-23T08:58:54;18.12;57.79
9723;DHT22;4900;49.306;8.500;2023-03-23T09:01:20;18.23;57.53
9723;DHT22;4900;49.306;8.500;2023-03-23T09:03:45;18.30;57.36
9723;DHT22;4900;49.306;8.500;2023-03-23T09:06:11;18.36;57.19
9723;DHT22;4900;49.306;8.500;2023-03-23T09:08:38;18.26;57.36
9723;DHT22;4900;49.306;8.500;2023-03-23T09:11:07;18.27;57.45
9723;DHT22;4900;49.306;8.500;2023-03-23T09:13:34;18.22;57.47
9723;DHT22;4900;49.306;8.500;2023-03-23T09:16:00;18.36;57.20
9723;DHT22;4900;49.306;8.500;2023-03-23T09:18:26;18.31;57.40
9723;DHT22;4900;49.306;8.500;2023-03-23T09:20:53;18.40;57.02
9723;DHT22;4900;49.306;8.500;2023-03-23T09:23:19;18.37;56.81
9723;DHT22;4900;49.306;8.500;2023-03-23T09:25:48;18.23;56.65
9723;DHT22;4900;49.306;8.500;2023-03-23T09:28:14;18.03;56.69
9723;DHT22;4900;49.306;8.500;2023-03-23T09:30:40;18.02;56.68
9723;DHT22;4900;49.306;8.500;2023-03-23T09:33:06;18.02;56.73
9723;DHT22;4900;49.306;8.500;2023-03-23T09:35:34;17.95;56.80
9723;DHT22;4900;49.306;8.500;2023-03-23T09:38:01;17.84;57.02
9723;DHT22;4900;49.306;8.500;2023-03-23T09:40:46;17.75;57.27
9723;DHT22;4900;49.306;8.500;2023-03-23T09:49:02;17.81;56.88
9723;DHT22;4900;49.306;8.500;2023-03-23T09:51:51;17.94;56.49
9723;DHT22;4900;49.306;8.500;2023-03-23T09:54:27;18.01;56.33
9723;DHT22;4900;49.306;8.500;2023-03-23T09:56:55;18.13;56.34
9723;DHT22;4900;49.306;8.500;2023-03-23T09:59:28;18.44;55.82
9723;DHT22;4900;49.306;8.500;2023-03-23T10:02:23;18.85;55.06
9723;DHT22;4900;49.306;8.500;2023-03-23T10:04:51;19.27;54.75
9723;DHT22;4900;49.306;8.500;2023-03-23T10:07:23;19.44;54.36
9723;DHT22;4900;49.306;8.500;2023-03-23T10:09:55;19.59;53.97
9723;DHT22;4900;49.306;8.500;2023-03-23T10:12:32;20.10;53.28
9723;DHT22;4900;49.306;8.500;2023-03-23T10:15:08;20.24;52.71
9723;DHT22;4900;49.306;8.500;2023-03-23T10:17:45;20.88;52.00
9723;DHT22;4900;49.306;8.500;2023-03-23T10:22:42;20.98;51.41
9723;DHT22;4900;49.306;8.500;2023-03-23T10:27:49;21.13;50.67
9723;DHT22;4900;49.306;8.500;2023-03-23T10:30:25;21.21;50.49
9723;DHT22;4900;49.306;8.500;2023-03-23T10:32:56;20.95;50.82
9723;DHT22;4900;49.306;8.500;2023-03-23T10:35:31;20.74;51.18
9723;DHT22;4900;49.306;8.500;2023-03-23T10:38:03;20.58;51.63
9723;DHT22;4900;49.306;8.500;2023-03-23T10:40:30;20.52;51.99
9723;DHT22;4900;49.306;8.500;2023-03-23T10:42:57;20.55;52.05
9723;DHT22;4900;49.306;8.500;2023-03-23T10:45:28;20.54;52.42
9723;DHT22;4900;49.306;8.500;2023-03-23T10:48:14;20.31;53.25
9723;DHT22;4900;49.306;8.500;2023-03-23T10:50:42;20.05;54.53
9723;DHT22;4900;49.306;8.500;2023-03-23T10:53:17;19.87;55.06
9723;DHT22;4900;49.306;8.500;2023-03-23T10:55:45;19.82;55.64
9723;DHT22;4900;49.306;8.500;2023-03-23T10:58:27;20.20;54.90
9723;DHT22;4900;49.306;8.500;2023-03-23T11:00:57;19.87;55.75
9723;DHT22;4900;49.306;8.500;2023-03-23T11:06:06;20.10;55.20
9723;DHT22;4900;49.306;8.500;2023-03-23T11:08:46;20.13;55.08
9723;DHT22;4900;49.306;8.500;2023-03-23T11:11:38;19.64;55.97
9723;DHT22;4900;49.306;8.500;2023-03-23T11:14:24;19.04;57.37
9723;DHT22;4900;49.306;8.500;2023-03-23T11:16:52;18.91;58.16
9723;DHT22;4900;49.306;8.500;2023-03-23T11:19:28;18.81;58.70
9723;DHT22;4900;49.306;8.500;2023-03-23T11:21:58;19.02;58.75
9723;DHT22;4900;49.306;8.500;2023-03-23T11:24:26;19.13;58.40
9723;DHT22;4900;49.306;8.500;2023-03-23T11:26:52;19.41;57.70
9723;DHT22;4900;49.306;8.500;2023-03-23T11:29:21;19.53;57.35
9723;DHT22;4900;49.306;8.500;2023-03-23T11:31:50;19.82;56.54
9723;DHT22;4900;49.306;8.500;2023-03-23T11:34:40;20.05;55.88
9723;DHT22;4900;49.306;8.500;2023-03-23T11:42:45;20.29;54.95
9723;DHT22;4900;49.306;8.500;2023-03-23T11:45:39;20.21;54.68
9723;DHT22;4900;49.306;8.500;2023-03-23T11:50:57;20.06;54.90
9723;DHT22;4900;49.306;8.500;2023-03-23T11:58:49;19.96;55.13
9723;DHT22;4900;49.306;8.500;2023-03-23T12:04:19;19.64;55.51
9723;DHT22;4900;49.306;8.500;2023-03-23T12:15:22;19.79;54.74
9723;DHT22;4900;49.306;8.500;2023-03-23T12:24:06;19.81;54.17
9723;DHT22;4900;49.306;8.500;2023-03-23T12:26:39;19.72;54.40
9723;DHT22;4900;49.306;8.500;2023-03-23T12:29:28;19.76;54.08
9723;DHT22;4900;49.306;8.500;2023-03-23T12:34:41;19.54;54.75
9723;DHT22;4900;49.306;8.500;2023-03-23T12:40:08;19.33;54.97
9723;DHT22;4900;49.306;8.500;2023-03-23T12:46:01;18.98;55.39
9723;DHT22;4900;49.306;8.500;2023-03-23T12:48:33;19.04;55.37
9723;DHT22;4900;49.306;8.500;2023-03-23T12:53:33;19.18;55.09
9723;DHT22;4900;49.306;8.500;2023-03-23T12:56:24;19.09;55.20
9723;DHT22;4900;49.306;8.500;2023-03-23T12:58:59;18.93;55.59
9723;DHT22;4900;49.306;8.500;2023-03-23T13:01:31;18.95;55.41
9723;DHT22;4900;49.306;8.500;2023-03-23T13:04:04;18.79;55.85
9723;DHT22;4900;49.306;8.500;2023-03-23T13:06:42;18.78;55.83
9723;DHT22;4900;49.306;8.500;2023-03-23T13:09:47;18.63;56.35
9723;DHT22;4900;49.306;8.500;2023-03-23T13:12:14;18.69;56.40
9723;DHT22;4900;49.306;8.500;2023-03-23T13:20:21;18.82;55.69
9723;DHT22;4900;49.306;8.500;2023-03-23T13:23:00;18.75;55.80
9723;DHT22;4900;49.306;8.500;2023-03-23T13:28:16;18.58;56.05
9723;DHT22;4900;49.306;8.500;2023-03-23T13:31:12;18.31;56.53
9723;DHT22;4900;49.306;8.500;2023-03-23T13:33:39;18.19;56.82
9723;DHT22;4900;49.306;8.500;2023-03-23T13:36:13;18.19;56.83
9723;DHT22;4900;49.306;8.500;2023-03-23T13:38:45;18.12;56.83
9723;DHT22;4900;49.306;8.500;2023-03-23T13:41:14;17.94;57.32
9723;DHT22;4900;49.306;8.500;2023-03-23T13:43:41;17.85;57.51
9723;DHT22;4900;49.306;8.500;2023-03-23T13:48:46;17.57;58.03
9723;DHT22;4900;49.306;8.500;2023-03-23T13:57:00;17.53;58.06
9723;DHT22;4900;49.306;8.500;2023-03-23T14:01:57;17.36;58.54
9723;DHT22;4900;49.306;8.500;2023-03-23T14:04:41;17.33;58.64
9723;DHT22;4900;49.306;8.500;2023-03-23T14:07:11;17.37;58.47
9723;DHT22;4900;49.306;8.500;2023-03-23T14:09:42;17.39;58.38
9723;DHT22;4900;49.306;8.500;2023-03-23T14:12:18;17.19;58.88
9723;DHT22;4900;49.306;8.500;2023-03-23T14:14:50;17.22;58.88
9723;DHT22;4900;49.306;8.500;2023-03-23T14:17:25;17.24;58.90
9723;DHT22;4900;49.306;8.500;2023-03-23T14:19:53;17.26;59.00
9723;DHT22;4900;49.306;8.500;2023-03-23T14:22:26;17.30;58.81
9723;DHT22;4900;49.306;8.500;2023-03-23T14:25:08;17.18;59.21
9723;DHT22;4900;49.306;8.500;2023-03-23T14:27:34;17.24;58.97
9723;DHT22;4900;49.306;8.500;2023-03-23T14:30:05;17.23;59.13
9723;DHT22;4900;49.306;8.500;2023-03-23T14:32:32;17.24;59.26
9723;DHT22;4900;49.306;8.500;2023-03-23T14:34:59;17.34;59.14
9723;DHT22;4900;49.306;8.500;2023-03-23T14:37:25;17.37;58.94
9723;DHT22;4900;49.306;8.500;2023-03-23T14:39:55;17.41;58.94
9723;DHT22;4900;49.306;8.500;2023-03-23T14:42:28;17.46;58.92
9723;DHT22;4900;49.306;8.500;2023-03-23T14:44:54;17.43;59.24
9723;DHT22;4900;49.306;8.500;2023-03-23T14:47:25;17.39;59.24
9723;DHT22;4900;49.306;8.500;2023-03-23T14:49:56;17.36;59.39
9723;DHT22;4900;49.306;8.500;2023-03-23T14:52:25;17.33;59.51
9723;DHT22;4900;49.306;8.500;2023-03-23T14:54:51;17.34;59.48
9723;DHT22;4900;49.306;8.500;2023-03-23T14:59:51;17.29;59.61
9723;DHT22;4900;49.306;8.500;2023-03-23T15:04:55;17.34;59.36
9723;DHT22;4900;49.306;8.500;2023-03-23T15:07:26;17.34;59.23
9723;DHT22;4900;49.306;8.500;2023-03-23T15:09:54;17.36;59.24
9723;DHT22;4900;49.306;8.500;2023-03-23T15:12:37;17.33;59.10
9723;DHT22;4900;49.306;8.500;2023-03-23T15:15:05;17.43;59.22
9723;DHT22;4900;49.306;8.500;2023-03-23T15:17:37;17.51;58.87
9723;DHT22;4900;49.306;8.500;2023-03-23T15:20:18;17.61;58.68
9723;DHT22;4900;49.306;8.500;2023-03-23T15:22:46;17.70;58.55
9723;DHT22;4900;49.306;8.500;2023-03-23T15:25:19;17.73;58.44
9723;DHT22;4900;49.306;8.500;2023-03-23T15:27:52;17.74;58.39
9723;DHT22;4900;49.306;8.500;2023-03-23T15:32:53;17.68;58.76
9723;DHT22;4900;49.306;8.500;2023-03-23T15:35:21;17.63;59.03
9723;DHT22;4900;49.306;8.500;2023-03-23T15:37:58;17.61;58.87
9723;DHT22;4900;49.306;8.500;2023-03-23T15:40:26;17.55;59.18
9723;DHT22;4900;49.306;8.500;2023-03-23T15:43:19;17.53;59.02
9723;DHT22;4900;49.306;8.500;2023-03-23T15:48:26;17.50;59.78
9723;DHT22;4900;49.306;8.500;2023-03-23T15:50:52;17.46;59.68
9723;DHT22;4900;49.306;8.500;2023-03-23T15:55:43;17.43;59.92
9723;DHT22;4900;49.306;8.500;2023-03-23T15:58:11;17.49;59.89
9723;DHT22;4900;49.306;8.500;2023-03-23T16:00:37;17.47;60.02
9723;DHT22;4900;49.306;8.500;2023-03-23T16:03:05;17.60;59.97
9723;DHT22;4900;49.306;8.500;2023-03-23T16:05:33;17.74;59.67
9723;DHT22;4900;49.306;8.500;2023-03-23T16:07:59;17.81;59.37
9723;DHT22;4900;49.306;8.500;2023-03-23T16:10:26;17.89;59.10
9723;DHT22;4900;49.306;8.500;2023-03-23T16:12:51;17.95;58.91
9723;DHT22;4900;49.306;8.500;2023-03-23T16:15:20;18.03;58.67
9723;DHT22;4900;49.306;8.500;2023-03-23T16:17:46;18.03;58.51
9723;DHT22;4900;49.306;8.500;2023-03-23T16:20:17;18.05;58.36
9723;DHT22;4900;49.306;8.500;2023-03-23T16:22:44;18.06;58.38
9723;DHT22;4900;49.306;8.500;2023-03-23T16:25:11;18.10;58.32
9723;DHT22;4900;49.306;8.500;2023-03-23T16:27:37;18.08;58.43
9723;DHT22;4900;49.306;8.500;2023-03-23T16:30:14;18.05;58.19
9723;DHT22;4900;49.306;8.500;2023-03-23T16:32:40;18.06;58.17
9723;DHT22;4900;49.306;8.500;2023-03-23T16:35:06;18.09;58.15
9723;DHT22;4900;49.306;8.500;2023-03-23T16:37:32;18.06;58.21
9723;DHT22;4900;49.306;8.500;2023-03-23T16:39:58;18.06;58.23
9723;DHT22;4900;49.306;8.500;2023-03-23T16:42:23;18.03;58.33
9723;DHT22;4900;49.306;8.500;2023-03-23T16:44:49;18.01;58.20
9723;DHT22;4900;49.306;8.500;2023-03-23T16:47:15;17.92;58.34
9723;DHT22;4900;49.306;8.500;2023-03-23T16:49:43;17.89;58.46
9723;DHT22;4900;49.306;8.500;2023-03-23T16:52:09;17.82;58.58
9723;DHT22;4900;49.306;8.500;2023-03-23T16:54:34;17.81;58.67
9723;DHT22;4900;49.306;8.500;2023-03-23T16:57:00;17.70;58.88
9723;DHT22;4900;49.306;8.500;2023-03-23T16:59:27;17.63;59.03
9723;DHT22;4900;49.306;8.500;2023-03-23T17:01:53;17.61;59.15
9723;DHT22;4900;49.306;8.500;2023-03-23T17:04:18;17.54;59.20
9723;DHT22;4900;49.306;8.500;2023-03-23T17:06:44;17.54;59.35
9723;DHT22;4900;49.306;8.500;2023-03-23T17:09:10;17.44;59.47
9723;DHT22;4900;49.306;8.500;2023-03-23T17:11:35;17.39;59.39
9723;DHT22;4900;49.306;8.500;2023-03-23T17:14:01;17.34;59.64
9723;DHT22;4900;49.306;8.500;2023-03-23T17:16:26;17.26;59.90
9723;DHT22;4900;49.306;8.500;2023-03-23T17:18:52;17.18;59.91
9723;DHT22;4900;49.306;8.500;2023-03-23T17:21:17;17.12;60.11
9723;DHT22;4900;49.306;8.500;2023-03-23T17:23:44;17.06;60.34
9723;DHT22;4900;49.306;8.500;2023-03-23T17:26:10;17.01;60.52
9723;DHT22;4900;49.306;8.500;2023-03-23T17:28:35;16.91;60.75
9723;DHT22;4900;49.306;8.500;2023-03-23T17:31:01;16.85;60.89
9723;DHT22;4900;49.306;8.500;2023-03-23T17:33:26;16.83;61.12
9723;DHT22;4900;49.306;8.500;2023-03-23T17:35:52;16.72;61.31
9723;DHT22;4900;49.306;8.500;2023-03-23T17:38:18;16.68;61.40
9723;DHT22;4900;49.306;8.500;2023-03-23T17:40:43;16.63;61.57
9723;DHT22;4900;49.306;8.500;2023-03-23T17:43:09;16.57;61.94
9723;DHT22;4900;49.306;8.500;2023-03-23T17:45:34;16.51;62.17
9723;DHT22;4900;49.306;8.500;2023-03-23T17:48:01;16.47;62.40
9723;DHT22;4900;49.306;8.500;2023-03-23T17:50:32;16.37;62.65
9723;DHT22;4900;49.306;8.500;2023-03-23T17:52:57;16.33;62.77
9723;DHT22;4900;49.306;8.500;2023-03-23T17:55:24;16.30;62.99
9723;DHT22;4900;49.306;8.500;2023-03-23T17:57:50;16.25;63.29
9723;DHT22;4900;49.306;8.500;2023-03-23T18:00:16;16.18;63.49
9723;DHT22;4900;49.306;8.500;2023-03-23T18:02:41;16.18;63.72
9723;DHT22;4900;49.306;8.500;2023-03-23T18:05:07;16.13;63.78
9723;DHT22;4900;49.306;8.500;2023-03-23T18:07:33;16.15;63.64
9723;DHT22;4900;49.306;8.500;2023-03-23T18:09:59;16.15;63.80